Time;durP1;ratioP1;P1;durP2;ratioP2;P2;SDS_P1;SDS_P2;PMS_P1;PMS_P2;Temp;Humidity;BMP_temperature;BMP_pressure;BME280_temperature;BME280_humidity;BME280_pressure;Samples;Min_cycle;Max_cycle;Signal;HPM_P1;HPM_P2
2021/12/30 00:00:57;;;;;;;5.75;1.20;;;;;;;14.07;76.96;100236.63;5052831;28;20064;-73
2021/12/30 00:03:25;;;;;;;6.85;1.65;;;;;;;14.08;76.77;100248.13;5082842;28;20044;-73
2021/12/30 00:05:54;;;;;;;7.75;1.65;;;;;;;14.08;76.83;100235.75;5066277;28;20044;-73
2021/12/30 00:08:23;;;;;;;6.63;1.75;;;;;;;14.09;76.56;100231.31;5054808;28;20045;-73
2021/12/30 00:10:51;;;;;;;9.82;3.05;;;;;;;14.07;76.45;100231.34;5050373;28;20099;-73
2021/12/30 00:13:18;;;;;;;10.77;2.90;;;;;;;14.02;76.20;100237.56;5050555;28;20065;-73
2021/12/30 00:15:46;;;;;;;7.40;2.45;;;;;;;13.92;76.16;100237.63;5049649;28;20060;-73
2021/12/30 00:18:14;;;;;;;11.38;3.50;;;;;;;13.87;76.16;100239.44;5060172;28;20059;-73
2021/12/30 00:20:42;;;;;;;6.45;1.98;;;;;;;13.83;76.09;100243.00;5049527;28;20056;-73
2021/12/30 00:23:12;;;;;;;7.18;2.38;;;;;;;13.82;76.00;100230.63;5050528;28;20041;-73
2021/12/30 00:25:42;;;;;;;9.55;2.25;;;;;;;13.80;75.84;100239.47;5050347;28;20047;-73
2021/12/30 00:28:11;;;;;;;11.65;3.00;;;;;;;13.75;75.70;100236.84;5064237;28;20044;-73
2021/12/30 00:30:40;;;;;;;9.27;3.33;;;;;;;13.65;75.70;100236.94;5056309;28;20120;-73
2021/12/30 00:33:08;;;;;;;14.77;7.30;;;;;;;13.41;75.94;100230.84;5051149;28;20451;-73
2021/12/30 00:35:36;;;;;;;10.23;3.65;;;;;;;13.35;76.23;100230.88;5069352;28;20032;-74
2021/12/30 00:38:05;;;;;;;12.00;5.00;;;;;;;13.37;76.24;100233.53;5058290;28;20118;-73
2021/12/30 00:40:35;;;;;;;12.90;4.20;;;;;;;13.38;76.06;100233.53;5055105;28;20044;-74
2021/12/30 00:43:03;;;;;;;6.30;3.10;;;;;;;13.36;75.87;100240.59;5065720;28;20400;-73
2021/12/30 00:45:33;;;;;;;16.77;5.88;;;;;;;13.32;75.80;100232.66;5066405;28;20036;-74
2021/12/30 00:48:01;;;;;;;10.60;3.92;;;;;;;13.27;75.86;100227.34;5049043;28;20053;-73
2021/12/30 00:50:30;;;;;;;8.30;2.63;;;;;;;13.25;75.78;100223.84;5051194;28;20065;-73
2021/12/30 00:53:00;;;;;;;3.42;1.70;;;;;;;13.19;75.75;100228.28;5054146;28;20131;-73
2021/12/30 00:55:28;;;;;;;6.95;2.17;;;;;;;13.18;75.78;100226.53;5050438;28;20046;-73
2021/12/30 00:57:57;;;;;;;9.85;4.53;;;;;;;13.20;75.70;100222.97;5068210;28;20093;-74
2021/12/30 01:00:25;;;;;;;10.98;7.53;;;;;;;13.19;75.60;100223.00;5082288;28;20123;-72
2021/12/30 01:02:53;;;;;;;13.60;7.97;;;;;;;13.16;75.50;100223.88;5063580;28;20053;-73
2021/12/30 01:05:21;;;;;;;9.15;6.03;;;;;;;13.06;75.64;100206.22;5080773;28;20719;-74
2021/12/30 01:07:49;;;;;;;20.27;13.70;;;;;;;12.93;76.02;100215.94;5028933;28;20450;-73
2021/12/30 01:10:20;;;;;;;9.60;4.15;;;;;;;12.92;76.13;100208.91;5046829;28;20060;-73
2021/12/30 01:12:49;;;;;;;14.25;5.60;;;;;;;12.88;76.00;100219.50;5048068;28;20039;-73
2021/12/30 01:15:21;;;;;;;4.68;2.38;;;;;;;12.88;75.85;100207.16;5063750;28;20049;-73
2021/12/30 01:17:54;;;;;;;10.02;4.47;;;;;;;12.85;75.90;100201.88;5060285;28;20068;-73
2021/12/30 01:20:22;;;;;;;7.22;2.80;;;;;;;12.85;75.74;100203.63;5050580;28;20061;-73
2021/12/30 01:22:52;;;;;;;8.23;2.70;;;;;;;12.84;75.89;100201.88;5048280;28;25456;-73
2021/12/30 01:25:20;;;;;;;13.38;6.18;;;;;;;12.85;76.09;100199.22;5061594;28;20068;-73
2021/12/30 01:27:48;;;;;;;9.57;4.55;;;;;;;12.86;75.93;100198.34;5064026;28;20106;-73
2021/12/30 01:30:20;;;;;;;7.78;2.40;;;;;;;12.87;75.94;100197.44;5052311;28;20097;-72
2021/12/30 01:32:48;;;;;;;12.65;5.32;;;;;;;12.90;75.86;100199.19;5048022;28;20048;-73
2021/12/30 01:35:22;;;;;;;10.52;4.40;;;;;;;12.87;75.76;100192.13;5081811;28;20087;-73
2021/12/30 01:37:50;;;;;;;8.52;3.97;;;;;;;12.84;75.90;100189.50;5065841;28;20111;-73
2021/12/30 01:40:18;;;;;;;7.43;3.95;;;;;;;12.83;75.89;100185.09;5034840;28;20072;-73
2021/12/30 01:42:46;;;;;;;9.77;5.25;;;;;;;12.77;75.88;100182.47;5056361;28;20041;-73
2021/12/30 01:45:14;;;;;;;12.88;5.95;;;;;;;12.64;76.06;100176.31;5049509;28;20500;-73
2021/12/30 01:47:50;;;;;;;11.23;5.28;;;;;;;12.60;76.40;100174.53;5050052;28;20052;-74
2021/12/30 01:50:18;;;;;;;17.13;7.45;;;;;;;12.60;76.54;100179.00;5041528;28;20064;-73
2021/12/30 01:52:45;;;;;;;13.48;6.00;;;;;;;12.50;76.74;100170.16;5054504;28;20036;-73
2021/12/30 01:55:14;;;;;;;7.40;3.15;;;;;;;12.57;76.91;100173.69;5055709;28;20044;-73
2021/12/30 01:57:42;;;;;;;9.00;4.20;;;;;;;12.64;76.77;100160.44;5047410;28;20098;-72
2021/12/30 02:00:13;;;;;;;16.08;11.23;;;;;;;12.70;76.69;100167.47;5038943;28;20037;-73
2021/12/30 02:02:43;;;;;;;13.73;5.60;;;;;;;12.70;76.80;100170.13;5050395;28;20052;-73
2021/12/30 02:05:11;;;;;;;19.05;17.02;;;;;;;12.63;76.77;100165.72;5054963;28;20044;-73
2021/12/30 02:07:40;;;;;;;9.90;4.95;;;;;;;12.58;76.85;100160.44;5047629;28;20064;-73
2021/12/30 02:10:09;;;;;;;13.25;10.25;;;;;;;12.61;76.78;100155.13;5058063;28;20044;-73
2021/12/30 02:12:38;;;;;;;14.23;9.75;;;;;;;12.62;76.74;100156.00;5069036;28;20091;-72
2021/12/30 02:15:10;;;;;;;11.07;5.65;;;;;;;12.63;76.68;100153.38;5062853;28;20125;-73
2021/12/30 02:17:37;;;;;;;12.32;6.15;;;;;;;12.60;76.61;100149.88;5059283;28;20800;-72
2021/12/30 02:20:10;;;;;;;8.93;5.20;;;;;;;12.55;76.50;100148.97;5050116;28;20540;-73
2021/12/30 02:22:39;;;;;;;18.45;5.63;;;;;;;12.52;76.60;100147.22;5040827;28;20767;-73
2021/12/30 02:25:07;;;;;;;8.73;4.32;;;;;;;12.54;76.49;100142.78;5040370;28;20041;-73
2021/12/30 02:27:34;;;;;;;8.75;5.15;;;;;;;12.47;76.50;100138.41;5069043;28;20032;-73
2021/12/30 02:30:02;;;;;;;11.18;5.38;;;;;;;12.46;76.66;100133.13;5065453;28;20545;-73
2021/12/30 02:32:30;;;;;;;10.05;5.32;;;;;;;12.44;76.70;100129.59;5059391;28;20033;-72
2021/12/30 02:34:57;;;;;;;8.90;5.05;;;;;;;12.41;76.67;100130.47;5083812;28;20399;-73
2021/12/30 02:37:27;;;;;;;6.65;2.78;;;;;;;12.34;76.78;100131.38;5067012;28;20094;-73
2021/12/30 02:39:55;;;;;;;5.72;2.15;;;;;;;12.20;76.81;100119.94;5064223;28;20128;-73
2021/12/30 02:42:24;;;;;;;6.72;2.40;;;;;;;12.09;77.17;100129.63;5047713;28;20099;-72
2021/12/30 02:44:52;;;;;;;10.20;3.25;;;;;;;12.11;77.39;100127.88;5068791;28;20041;-73
2021/12/30 02:47:20;;;;;;;9.77;4.30;;;;;;;12.16;77.45;100123.47;5064932;28;20098;-73
2021/12/30 02:49:48;;;;;;;8.55;3.53;;;;;;;12.29;77.28;100125.19;5057070;28;20044;-72
2021/12/30 02:52:16;;;;;;;7.15;4.15;;;;;;;12.34;76.97;100124.31;5060407;28;20049;-73
2021/12/30 02:54:45;;;;;;;6.88;3.38;;;;;;;12.34;76.78;100126.06;5047153;28;20033;-73
2021/12/30 02:57:12;;;;;;;6.90;3.92;;;;;;;12.32;76.52;100125.22;5036691;28;20045;-73
2021/12/30 02:59:40;;;;;;;21.85;19.55;;;;;;;12.26;76.70;100125.22;5052416;28;20496;-73
2021/12/30 03:02:08;;;;;;;20.90;16.83;;;;;;;12.33;76.79;100127.88;5034381;28;20069;-73
2021/12/30 03:04:36;;;;;;;18.75;16.02;;;;;;;12.43;76.82;100131.34;5064136;28;20059;-72
2021/12/30 03:07:03;;;;;;;14.82;11.48;;;;;;;12.50;76.72;100130.47;5065769;28;20132;-73
2021/12/30 03:09:31;;;;;;;14.60;8.10;;;;;;;12.51;76.67;100126.94;5064774;28;20044;-73
2021/12/30 03:12:01;;;;;;;12.15;6.80;;;;;;;12.55;76.60;100128.66;5065564;28;20052;-72
2021/12/30 03:14:29;;;;;;;16.90;12.20;;;;;;;12.52;76.63;100138.41;5066309;28;20052;-72
2021/12/30 03:16:57;;;;;;;41.17;36.83;;;;;;;12.44;76.61;100130.47;5070360;28;20523;-72
2021/12/30 03:19:25;;;;;;;24.42;21.80;;;;;;;12.49;76.73;100133.09;5070154;28;20052;-73
2021/12/30 03:21:55;;;;;;;16.40;11.00;;;;;;;12.53;76.72;100133.13;5070080;28;20506;-73
2021/12/30 03:24:23;;;;;;;12.25;7.97;;;;;;;12.58;76.73;100122.50;5070517;28;20404;-72
2021/12/30 03:26:50;;;;;;;9.40;6.63;;;;;;;12.62;76.73;100129.53;5071333;28;20086;-73
2021/12/30 03:29:19;;;;;;;9.57;4.63;;;;;;;12.70;76.66;100128.63;5069623;28;20151;-73
2021/12/30 03:31:47;;;;;;;7.05;4.00;;;;;;;12.71;76.63;100140.13;5071735;28;20037;-72
2021/12/30 03:34:15;;;;;;;8.23;4.20;;;;;;;12.68;76.76;100134.81;5071014;28;20045;-73
2021/12/30 03:36:43;;;;;;;8.98;5.05;;;;;;;12.73;76.70;100139.19;5070140;28;20119;-73
2021/12/30 03:39:12;;;;;;;11.60;5.25;;;;;;;12.74;76.77;100137.44;5084850;28;20048;-73
2021/12/30 03:41:40;;;;;;;10.10;4.63;;;;;;;12.82;76.92;100134.78;5064577;28;20489;-72
2021/12/30 03:44:07;;;;;;;4.18;2.63;;;;;;;12.91;76.79;100132.97;5071270;28;20102;-73
2021/12/30 03:46:37;;;;;;;5.35;2.65;;;;;;;12.94;76.79;100130.28;5071041;28;20056;-73
2021/12/30 03:49:06;;;;;;;9.48;5.70;;;;;;;12.95;76.90;100139.13;5070179;28;20059;-73
2021/12/30 03:51:38;;;;;;;9.40;6.55;;;;;;;12.96;77.06;100136.47;5070772;28;20048;-73
2021/12/30 03:54:06;;;;;;;10.38;7.53;;;;;;;12.98;77.10;100129.41;5067678;28;20512;-72
2021/12/30 03:56:35;;;;;;;10.25;5.60;;;;;;;12.99;76.97;100135.59;5071069;28;20037;-72
2021/12/30 03:59:04;;;;;;;11.27;7.75;;;;;;;12.98;76.98;100136.47;5067751;28;20040;-73
2021/12/30 04:01:31;;;;;;;12.27;7.45;;;;;;;12.96;77.08;100128.53;5069202;28;20043;-73
2021/12/30 04:04:01;;;;;;;7.40;4.07;;;;;;;12.93;77.11;100136.47;5053713;28;20057;-73
2021/12/30 04:06:29;;;;;;;9.90;5.53;;;;;;;12.96;77.11;100138.25;5078737;28;20045;-73
2021/12/30 04:08:57;;;;;;;7.75;3.55;;;;;;;12.96;77.13;100131.19;5065901;28;20037;-72
2021/12/30 04:11:26;;;;;;;5.65;2.60;;;;;;;12.99;77.15;100130.31;5067344;28;20044;-73
2021/12/30 04:13:54;;;;;;;7.28;4.28;;;;;;;12.95;77.19;100131.19;5051425;28;20052;-72
2021/12/30 04:16:21;;;;;;;6.00;2.70;;;;;;;12.90;77.21;100135.63;5070358;28;20052;-73
2021/12/30 04:18:49;;;;;;;8.40;3.20;;;;;;;12.90;77.15;100135.63;5059200;28;20087;-72
2021/12/30 04:21:21;;;;;;;10.68;3.95;;;;;;;12.89;77.14;100137.41;5052247;28;20197;-73
2021/12/30 04:23:48;;;;;;;6.85;3.50;;;;;;;12.83;77.08;100134.78;5050854;28;20095;-72
2021/12/30 04:26:16;;;;;;;7.55;2.42;;;;;;;12.81;77.12;100139.19;5029341;28;20057;-73
2021/12/30 04:28:45;;;;;;;5.80;2.35;;;;;;;12.81;77.25;100141.81;5053750;28;20525;-72
2021/12/30 04:31:13;;;;;;;5.13;3.28;;;;;;;12.82;77.34;100140.06;5049272;28;20119;-73
2021/12/30 04:33:41;;;;;;;6.10;4.25;;;;;;;12.83;77.49;100133.88;5063586;28;20047;-73
2021/12/30 04:36:08;;;;;;;7.75;3.55;;;;;;;12.87;77.58;100135.63;5048323;28;20103;-72
2021/12/30 04:38:39;;;;;;;6.63;3.63;;;;;;;12.92;77.55;100140.03;5050163;28;20048;-73
2021/12/30 04:41:08;;;;;;;8.63;4.80;;;;;;;12.98;77.69;100137.38;5049726;28;20045;-73
2021/12/30 04:43:35;;;;;;;7.15;2.92;;;;;;;13.06;77.59;100142.63;5052862;28;20496;-73
2021/12/30 04:46:03;;;;;;;5.95;3.10;;;;;;;13.04;77.59;100149.69;5049457;28;20158;-73
2021/12/30 04:48:31;;;;;;;6.32;2.65;;;;;;;13.07;77.60;100144.38;5064458;28;20041;-73
2021/12/30 04:50:58;;;;;;;9.10;5.32;;;;;;;13.00;77.69;100143.50;5069965;28;20459;-73
2021/12/30 04:53:26;;;;;;;6.40;3.40;;;;;;;12.94;77.92;100147.97;5053008;28;20097;-73
2021/12/30 04:55:55;;;;;;;10.38;6.05;;;;;;;12.92;78.21;100153.28;5048859;28;20094;-73
2021/12/30 04:58:23;;;;;;;9.40;4.43;;;;;;;12.89;78.20;100157.69;5053611;28;20101;-73
2021/12/30 05:00:51;;;;;;;6.18;3.55;;;;;;;12.88;78.37;100156.81;5061696;28;20049;-72
2021/12/30 05:03:20;;;;;;;10.07;7.00;;;;;;;12.89;78.39;100153.28;5055792;28;20443;-72
2021/12/30 05:05:50;;;;;;;11.27;6.93;;;;;;;12.83;78.49;100150.66;5064037;28;20045;-73
2021/12/30 05:08:21;;;;;;;13.13;8.57;;;;;;;12.76;78.95;100154.22;5066987;28;20432;-73
2021/12/30 05:10:51;;;;;;;12.00;7.75;;;;;;;12.77;78.99;100159.50;5060850;28;20044;-72
2021/12/30 05:13:20;;;;;;;14.20;8.32;;;;;;;12.86;78.87;100168.31;5060125;28;20083;-72
2021/12/30 05:15:48;;;;;;;13.02;7.47;;;;;;;12.87;78.77;100160.34;5064499;28;20087;-72
2021/12/30 05:18:18;;;;;;;9.10;4.70;;;;;;;12.89;78.86;100161.22;5049451;28;20039;-72
2021/12/30 05:20:46;;;;;;;6.20;2.72;;;;;;;12.91;78.75;100163.88;5049794;28;20071;-73
2021/12/30 05:23:13;;;;;;;5.00;2.40;;;;;;;12.91;78.85;100172.72;5060213;28;20040;-73
2021/12/30 05:25:41;;;;;;;4.05;1.35;;;;;;;12.91;78.75;100170.06;5047233;28;20163;-74
2021/12/30 05:28:09;;;;;;;5.65;2.03;;;;;;;12.93;78.87;100178.88;5058431;28;20134;-73
2021/12/30 05:30:38;;;;;;;6.18;2.90;;;;;;;12.99;78.88;100172.69;5050236;28;20551;-73
2021/12/30 05:33:06;;;;;;;11.20;5.07;;;;;;;13.02;78.88;100167.38;5067196;28;20052;-73
2021/12/30 05:35:34;;;;;;;14.95;6.40;;;;;;;13.04;78.83;100170.91;5063175;28;20044;-73
2021/12/30 05:38:02;;;;;;;12.10;7.35;;;;;;;13.09;78.80;100166.44;5080523;28;20037;-74
2021/12/30 05:40:31;;;;;;;15.02;7.07;;;;;;;13.09;78.75;100170.00;5049032;28;20586;-73
2021/12/30 05:42:59;;;;;;;18.00;10.10;;;;;;;13.14;78.74;100170.00;5069244;28;20148;-73
2021/12/30 05:45:27;;;;;;;12.63;6.90;;;;;;;13.19;78.76;100176.19;5049933;28;20052;-72
2021/12/30 05:47:58;;;;;;;8.07;4.20;;;;;;;13.26;78.66;100183.19;5063304;28;20499;-73
2021/12/30 05:50:27;;;;;;;11.45;6.43;;;;;;;13.29;78.58;100174.34;5027961;28;20043;-73
2021/12/30 05:52:55;;;;;;;13.77;7.40;;;;;;;13.31;78.64;100176.13;5060269;28;20576;-72
2021/12/30 05:55:22;;;;;;;21.10;12.30;;;;;;;13.36;78.81;100171.66;5062391;28;20127;-72
2021/12/30 05:57:52;;;;;;;10.85;6.65;;;;;;;13.41;78.58;100172.50;5059066;28;20045;-72
2021/12/30 06:00:21;;;;;;;18.02;9.02;;;;;;;13.49;78.53;100173.34;5050376;28;20057;-72
2021/12/30 06:02:50;;;;;;;18.17;12.63;;;;;;;13.56;78.46;100177.72;5048543;28;20471;-73
2021/12/30 06:05:20;;;;;;;17.58;9.32;;;;;;;13.64;78.32;100182.13;5052053;28;20123;-72
2021/12/30 06:07:48;;;;;;;17.45;9.18;;;;;;;13.64;78.39;100182.13;5069036;28;20043;-73
2021/12/30 06:10:16;;;;;;;15.48;9.20;;;;;;;13.58;78.57;100177.72;5067671;28;20127;-73
2021/12/30 06:12:45;;;;;;;11.68;6.90;;;;;;;13.52;78.65;100178.63;5068831;28;20043;-73
2021/12/30 06:15:13;;;;;;;11.23;6.35;;;;;;;13.47;78.66;100179.53;5063006;28;20047;-73
2021/12/30 06:17:41;;;;;;;11.38;5.88;;;;;;;13.45;78.62;100173.38;5060641;28;20519;-73
2021/12/30 06:20:13;;;;;;;8.48;4.63;;;;;;;13.38;78.70;100176.97;5048545;28;20049;-73
2021/12/30 06:22:42;;;;;;;11.80;6.40;;;;;;;13.36;78.60;100176.06;5049624;28;20058;-73
2021/12/30 06:25:12;;;;;;;11.75;6.28;;;;;;;13.32;78.60;100172.56;5047778;28;20045;-72
2021/12/30 06:27:39;;;;;;;11.52;6.80;;;;;;;13.33;78.67;100168.13;5062614;28;20044;-73
2021/12/30 06:30:08;;;;;;;16.00;8.90;;;;;;;13.31;78.78;100175.22;5047702;28;20455;-73
2021/12/30 06:32:36;;;;;;;16.00;10.80;;;;;;;13.33;78.85;100182.25;5063898;28;20128;-72
2021/12/30 06:35:07;;;;;;;9.82;6.32;;;;;;;13.38;78.90;100180.50;5063379;28;20041;-73
2021/12/30 06:37:36;;;;;;;12.93;8.27;;;;;;;13.41;78.85;100187.53;5047344;28;20029;-73
2021/12/30 06:40:07;;;;;;;24.02;15.45;;;;;;;13.46;78.75;100188.38;5064182;28;20037;-73
2021/12/30 06:42:35;;;;;;;27.15;18.63;;;;;;;13.48;78.73;100186.63;5048015;28;20407;-73
2021/12/30 06:45:03;;;;;;;29.13;20.00;;;;;;;13.57;78.72;100184.81;5063662;28;20122;-73
2021/12/30 06:47:31;;;;;;;21.08;14.63;;;;;;;13.70;78.46;100190.91;5048473;28;20737;-73
2021/12/30 06:50:01;;;;;;;16.08;11.10;;;;;;;13.88;78.25;100184.59;5056130;28;20045;-72
2021/12/30 06:52:29;;;;;;;17.58;11.18;;;;;;;14.10;78.04;100198.59;5053702;28;20086;-73
2021/12/30 06:54:57;;;;;;;15.30;10.55;;;;;;;14.30;77.91;100199.31;5069587;28;20037;-73
2021/12/30 06:57:28;;;;;;;17.80;9.98;;;;;;;14.49;77.56;100205.38;5059697;28;20051;-73
2021/12/30 06:59:56;;;;;;;14.82;9.30;;;;;;;14.53;77.61;100204.44;5065173;28;20063;-73
2021/12/30 07:02:23;;;;;;;11.95;8.48;;;;;;;14.69;77.67;100206.94;5053031;28;20045;-73
2021/12/30 07:04:51;;;;;;;26.88;24.10;;;;;;;14.88;77.68;100204.06;5037451;28;20489;-73
2021/12/30 07:07:18;;;;;;;25.70;22.23;;;;;;;15.04;77.49;100197.66;5033068;28;20129;-73
2021/12/30 07:09:47;;;;;;;20.90;15.07;;;;;;;15.16;77.27;100201.06;5067457;28;20166;-73
2021/12/30 07:12:15;;;;;;;13.50;11.15;;;;;;;15.27;77.22;100195.63;5051466;28;20038;-72
2021/12/30 07:14:44;;;;;;;8.80;6.00;;;;;;;15.32;77.20;100198.22;5050613;28;20045;-73
2021/12/30 07:17:12;;;;;;;13.90;9.38;;;;;;;15.30;76.91;100200.91;5051355;28;20120;-73
2021/12/30 07:19:40;;;;;;;14.15;8.10;;;;;;;15.32;77.11;100201.75;5043720;28;20370;-73
2021/12/30 07:22:07;;;;;;;15.80;7.85;;;;;;;15.35;77.01;100193.75;5050256;28;20432;-73
2021/12/30 07:24:35;;;;;;;12.68;8.32;;;;;;;15.49;76.52;100198.91;5065683;28;20033;-73
2021/12/30 07:27:02;;;;;;;9.05;5.55;;;;;;;15.61;76.49;100197.88;5067390;28;20110;-73
2021/12/30 07:29:30;;;;;;;11.82;7.82;;;;;;;15.75;76.22;100195.91;5063256;28;20561;-73
2021/12/30 07:32:00;;;;;;;10.77;6.15;;;;;;;15.83;76.03;100199.31;5038967;28;20502;-73
2021/12/30 07:34:27;;;;;;;12.40;8.00;;;;;;;15.82;76.05;100205.53;5050985;28;20041;-72
2021/12/30 07:36:55;;;;;;;10.68;8.73;;;;;;;15.74;76.04;100196.81;5047227;28;20056;-72
2021/12/30 07:39:22;;;;;;;14.15;10.15;;;;;;;15.68;76.22;100203.09;5046459;28;20049;-72
2021/12/30 07:41:50;;;;;;;13.88;8.43;;;;;;;15.70;76.46;100203.94;5037536;28;20051;-72
2021/12/30 07:44:20;;;;;;;12.43;7.93;;;;;;;15.67;76.64;100208.44;5052598;28;20092;-73
2021/12/30 07:46:48;;;;;;;9.18;5.80;;;;;;;15.61;76.80;100211.19;5066442;28;20041;-73
2021/12/30 07:49:17;;;;;;;11.57;6.15;;;;;;;15.57;76.86;100217.44;5060757;28;20043;-73
2021/12/30 07:51:45;;;;;;;10.13;6.80;;;;;;;15.55;76.88;100217.47;5047719;28;20041;-71
2021/12/30 07:54:13;;;;;;;21.23;10.55;;;;;;;15.55;76.61;100220.13;5042766;28;20559;-72
2021/12/30 07:56:41;;;;;;;21.98;12.38;;;;;;;15.69;76.72;100220.78;5034263;28;20121;-72
2021/12/30 07:59:08;;;;;;;9.45;4.97;;;;;;;15.84;76.69;100219.69;5043795;28;20490;-71
2021/12/30 08:01:36;;;;;;;6.85;4.28;;;;;;;16.09;76.37;100222.88;5049488;28;20759;-72
2021/12/30 08:04:04;;;;;;;6.40;3.17;;;;;;;16.35;75.61;100218.88;5048797;28;20116;-73
2021/12/30 08:06:35;;;;;;;7.63;3.03;;;;;;;16.40;74.97;100217.94;5040103;28;20599;-73
2021/12/30 08:09:03;;;;;;;5.03;2.78;;;;;;;16.35;74.61;100218.88;5048370;28;20052;-73
2021/12/30 08:11:31;;;;;;;5.30;2.38;;;;;;;16.37;74.42;100215.31;5045447;28;20041;-72
2021/12/30 08:13:59;;;;;;;6.05;2.38;;;;;;;16.46;74.17;100216.06;5051284;28;20053;-72
2021/12/30 08:16:27;;;;;;;5.50;1.40;;;;;;;16.75;74.03;100218.22;5081716;28;20037;-72
2021/12/30 08:18:54;;;;;;;7.25;2.03;;;;;;;17.09;73.44;100215.78;5048218;28;20548;-73
2021/12/30 08:21:23;;;;;;;3.20;1.40;;;;;;;17.45;73.10;100209.72;5043721;28;20073;-72
2021/12/30 08:23:53;;;;;;;7.47;1.33;;;;;;;17.53;72.83;100214.88;5039093;28;20033;-72
2021/12/30 08:26:21;;;;;;;2.42;1.08;;;;;;;17.35;72.68;100208.13;5029991;28;20041;-72
2021/12/30 08:28:48;;;;;;;2.90;0.85;;;;;;;17.22;72.60;100206.63;5078712;28;20198;-72
2021/12/30 08:31:16;;;;;;;6.30;1.20;;;;;;;17.12;72.48;100205.06;5056861;28;20433;-72
2021/12/30 08:33:44;;;;;;;11.32;4.22;;;;;;;17.03;72.17;100199.91;5065305;28;20074;-73
2021/12/30 08:36:12;;;;;;;20.10;9.18;;;;;;;16.92;72.04;100196.59;5068183;28;20499;-74
2021/12/30 08:38:40;;;;;;;14.18;5.35;;;;;;;16.83;72.31;100196.75;5063071;28;20055;-72
2021/12/30 08:41:09;;;;;;;14.57;6.53;;;;;;;16.98;72.47;100193.81;5058651;28;20095;-72
2021/12/30 08:43:37;;;;;;;9.75;6.03;;;;;;;17.24;72.31;100188.81;5059824;28;20068;-72
2021/12/30 08:46:05;;;;;;;4.53;1.83;;;;;;;17.43;72.05;100197.31;5055388;28;20110;-73
2021/12/30 08:48:33;;;;;;;4.72;1.70;;;;;;;17.72;71.58;100186.88;5035694;28;20536;-73
2021/12/30 08:51:00;;;;;;;3.53;1.40;;;;;;;18.12;71.45;100192.16;5029679;28;20148;-73
2021/12/30 08:53:29;;;;;;;2.80;1.45;;;;;;;18.33;70.83;100180.94;5044486;28;20041;-73
2021/12/30 08:55:58;;;;;;;12.32;8.93;;;;;;;18.55;70.73;100180.41;5060563;28;20044;-73
2021/12/30 08:58:27;;;;;;;8.13;3.63;;;;;;;18.69;69.91;100171.13;5027004;28;20095;-72
2021/12/30 09:01:13;;;;;;;4.57;1.80;;;;;;;18.90;69.51;100166.13;5080371;27;20411;-72
2021/12/30 09:03:41;;;;;;;4.95;1.83;;;;;;;18.82;69.08;100157.41;5064496;28;20048;-72
2021/12/30 09:06:09;;;;;;;4.82;1.45;;;;;;;18.65;68.36;100155.19;5064897;28;20107;-71
2021/12/30 09:08:37;;;;;;;5.00;1.23;;;;;;;18.48;67.32;100152.06;5063360;28;20045;-72
2021/12/30 09:11:04;;;;;;;4.45;1.20;;;;;;;18.39;66.90;100152.31;5076803;28;20045;-72
2021/12/30 09:13:32;;;;;;;8.48;2.45;;;;;;;18.33;66.63;100153.34;5063337;28;20040;-72
2021/12/30 09:16:01;;;;;;;6.03;2.28;;;;;;;18.29;66.32;100151.69;5055917;28;20053;-71
2021/12/30 09:18:31;;;;;;;5.00;3.10;;;;;;;18.39;66.54;100145.16;5038633;28;20041;-71
2021/12/30 09:20:58;;;;;;;6.32;1.73;;;;;;;18.79;66.52;100142.31;5039656;28;20041;-71
2021/12/30 09:23:26;;;;;;;3.47;1.10;;;;;;;19.29;65.80;100138.19;5041013;28;20045;-71
2021/12/30 09:25:56;;;;;;;2.88;0.98;;;;;;;19.44;65.41;100135.03;5062433;28;20053;-71
2021/12/30 09:28:24;;;;;;;3.42;1.38;;;;;;;19.49;65.02;100134.94;5063143;28;20045;-72
2021/12/30 09:30:52;;;;;;;2.00;1.17;;;;;;;19.42;64.08;100138.72;5063814;28;22426;-71
2021/12/30 09:33:20;;;;;;;4.88;1.70;;;;;;;19.42;64.01;100136.91;5063488;28;20413;-72
2021/12/30 09:35:48;;;;;;;2.15;1.17;;;;;;;19.92;63.51;100141.59;5057158;28;20041;-71
2021/12/30 09:38:16;;;;;;;3.20;1.00;;;;;;;20.43;63.39;100139.88;5062912;28;20045;-72
2021/12/30 09:40:44;;;;;;;3.35;0.73;;;;;;;20.93;62.69;100143.47;5052083;28;20504;-72
2021/12/30 09:43:12;;;;;;;3.92;0.93;;;;;;;21.23;62.42;100140.56;5062468;28;20053;-72
2021/12/30 09:45:43;;;;;;;2.72;0.73;;;;;;;21.29;62.05;100127.78;5061522;28;20064;-72
2021/12/30 09:48:13;;;;;;;0.93;0.55;;;;;;;21.48;61.53;100118.09;5077728;28;20075;-72
2021/12/30 09:50:44;;;;;;;1.73;0.80;;;;;;;21.66;60.83;100108.41;5078435;28;20040;-72
2021/12/30 09:53:15;;;;;;;1.63;0.68;;;;;;;21.79;61.18;100108.81;5060599;28;20404;-72
2021/12/30 09:55:42;;;;;;;4.03;0.90;;;;;;;21.74;60.77;100100.91;5063035;28;20049;-72
2021/12/30 09:58:10;;;;;;;2.22;0.77;;;;;;;21.59;60.66;100100.69;5045655;28;20049;-73
2021/12/30 10:00:39;;;;;;;2.40;0.73;;;;;;;21.79;60.76;100101.59;5062495;28;20049;-72
2021/12/30 10:03:07;;;;;;;3.05;0.90;;;;;;;21.77;61.18;100097.25;5062365;28;20143;-72
2021/12/30 10:05:38;;;;;;;2.90;0.90;;;;;;;21.56;61.69;100095.41;5062672;28;20131;-71
2021/12/30 10:08:17;;;;;;;3.67;1.30;;;;;;;21.34;61.99;100092.69;5061906;28;20048;-72
2021/12/30 10:10:47;;;;;;;3.33;1.00;;;;;;;20.96;62.23;100086.97;5058651;28;20500;-72
2021/12/30 10:13:21;;;;;;;2.80;1.75;;;;;;;20.60;62.10;100085.66;5049011;28;20523;-72
2021/12/30 10:15:51;;;;;;;;;;;;;;;20.05;62.19;100078.66;5030218;28;20037;-71
2021/12/30 10:18:19;;;;;;;10.05;6.25;;;;;;;19.62;62.59;100080.09;5061494;28;19959;-72
2021/12/30 10:20:47;;;;;;;3.05;1.40;;;;;;;19.19;62.19;100076.94;5041234;28;20042;-72
2021/12/30 10:23:20;;;;;;;6.40;1.65;;;;;;;18.74;62.12;100074.72;5045679;28;20610;-72
2021/12/30 10:25:50;;;;;;;6.03;3.08;;;;;;;18.38;62.50;100079.25;5057439;28;20063;-72
2021/12/30 10:28:26;;;;;;;3.63;0.90;;;;;;;18.06;62.45;100074.78;5048982;28;20127;-73
2021/12/30 10:30:57;;;;;;;3.58;1.02;;;;;;;17.94;62.72;100083.13;5049145;28;20041;-72
2021/12/30 10:33:26;;;;;;;4.30;1.70;;;;;;;17.99;62.57;100096.34;5031206;28;20041;-73
2021/12/30 10:35:55;;;;;;;5.82;1.33;;;;;;;18.05;62.54;100086.38;5047752;28;20130;-73
2021/12/30 10:38:30;;;;;;;1.95;1.35;;;;;;;18.19;62.46;100089.56;5048969;28;20047;-73
2021/12/30 10:41:03;;;;;;;3.50;2.03;;;;;;;18.43;62.19;100093.41;5030081;28;20493;-72
2021/12/30 10:43:37;;;;;;;3.80;1.95;;;;;;;18.65;61.99;100085.69;5045383;28;20045;-73
2021/12/30 10:46:06;;;;;;;;;;;;;;;18.68;61.74;100083.81;5047700;28;20045;-73
2021/12/30 10:48:34;;;;;;;2.40;1.10;;;;;;;18.64;62.10;100082.13;5035914;28;20348;-73
2021/12/30 10:51:13;;;;;;;0.93;0.65;;;;;;;18.70;61.80;100092.69;5046275;28;20068;-73
2021/12/30 10:53:43;;;;;;;2.72;1.13;;;;;;;18.62;61.27;100083.97;5049620;28;20103;-73
2021/12/30 10:56:35;;;;;;;8.50;2.50;;;;;;;18.50;60.82;100091.44;5030931;28;20037;-73
2021/12/30 10:59:16;;;;;;;5.38;1.65;;;;;;;18.44;60.96;100087.16;5038486;28;20049;-72
2021/12/30 11:01:46;;;;;;;4.55;1.70;;;;;;;18.60;60.71;100087.59;5044609;28;20666;-73
2021/12/30 11:04:14;;;;;;;5.38;1.35;;;;;;;18.56;60.52;100080.59;5047974;28;21546;-73
2021/12/30 11:06:42;;;;;;;4.53;1.30;;;;;;;18.50;60.42;100086.09;5046248;28;20033;-73
2021/12/30 11:09:15;;;;;;;3.05;1.00;;;;;;;18.45;60.62;100083.53;5063273;28;20048;-74
2021/12/30 11:11:46;;;;;;;2.95;1.17;;;;;;;18.50;60.66;100086.97;5045889;28;20053;-74
2021/12/30 11:14:17;;;;;;;5.15;3.10;;;;;;;18.50;60.56;100081.63;5046780;28;20132;-74
2021/12/30 11:17:11;;;;;;;4.93;1.65;;;;;;;18.44;60.57;100083.59;5045820;28;20124;-74
2021/12/30 11:19:41;;;;;;;3.38;0.93;;;;;;;18.22;60.65;100084.16;5047241;28;20448;-73
2021/12/30 11:22:14;;;;;;;2.10;0.82;;;;;;;18.17;60.65;100078.06;5050998;28;20045;-73
2021/12/30 11:24:46;;;;;;;0.95;0.60;;;;;;;18.26;60.49;100082.28;5028479;28;20064;-74
2021/12/30 11:27:15;;;;;;;1.20;0.57;;;;;;;18.41;60.01;100080.97;5049874;28;20048;-73
2021/12/30 11:29:46;;;;;;;2.33;0.55;;;;;;;18.47;59.79;100084.38;5047910;28;20087;-73